Relevés horaires Antwerpen / Deurne (Belgique)


Relevés horaires à Antwerpen / Deurne - Dimanche 03 Juill. 2022
Heure UTC1 Température [°C] Vent [km/h] Hum. [%] Pres.4 [hPa] Visi. [Km] Nébu. [octa] Préc.5 [mm] Cond.
2m. Res. Ros. Dir.2 Vit. Moy. Raf.3
23:00 15.2 15.2 11.0 O 1.9 3.7 3.7 76 1021.2(0.7/3h) 45 -- -- --
22:00 16.3 16.3 11.0 SO 1.9 3.7 5.6 71 1021.2(1.0/3h) 40 -- -- --
21:00 16.6 16.6 10.8 ONO 3.7 9.3 14.8 69 1020.9(0.8/3h) 40 1/8 -- --
20:00 17.3 17.3 10.1 ONO 7.4 9.3 11.1 63 1020.4(0.6/3h) 40 1/8 -- --
19:00 18.4 18.4 10.8 O 9.3 9.3 14.8 61 1020.2(-0.1/3h) 40 1/8 -- --
18:00 19.1 19.1 9.7 ONO 7.4 11.1 18.5 54 1020.1(-0.1/3h) 40 2/8 0/12h
--
17:00 19.7 19.7 10.1 ONO 5.6 11.1 14.8 54 1019.8(0.1/3h) 40 2/8 -- --
16:00 19.4 19.4 9.4 ONO 9.3 11.1 14.8 52 1020.1(0.5/3h) 40 4/8 -- --
15:00 19.7 19.7 9.0 ONO 11.1 11.1 18.5 50 1020(0.6/3h) 40 2/8 -- --
14:00 20.4 20.4 10.7 O 7.4 11.1 18.5 54 1019.7(0.0/3h) 40 4/8 -- --
13:00 19.8 19.8 8.8 O 9.3 11.1 16.7 49 1019.6(0.0/3h) 40 4/8 -- --
12:00 20.8 20.8 9.5 OSO 7.4 9.3 14.8 48 1019.4(0.1/3h) 40 3/8 0/6h
--
11:00 19.6 19.6 10.4 OSO 9.3 9.3 14.8 55 1019.7(0.3/3h) 40 5/8 -- --
10:00 18.5 18.5 10.6 SO 7.4 9.3 14.8 60 1019.7(0.6/3h) 30 5/8 -- --
09:00 18.2 18.2 11.5 OSO 5.6 9.3 11.1 65 1019.3(0.2/3h) 25 6/8 -- --
08:00 16.8 16.8 11.6 OSO 5.6 9.3 11.1 71 1019.4(0.7/3h) 25 5/8 -- --
07:00 16.5 16.5 11.6 O 7.4 7.4 11.1 73 1019.1(0.6/3h) 30 3/8 -- --
06:00 15.6 15.6 10.9 O 5.6 7.4 13.0 74 1019.1(0.7/3h) 40 3/8 0/12h
--
05:00 15.1 15.1 9.6 O 5.6 5.6 9.3 70 1018.7(0.2/3h) 40 4/8 -- --
04:00 14.9 14.9 8.9 OSO 5.6 5.6 7.4 67 1018.5(-0.2/3h) 45 8/8 -- --
03:00 15.4 15.4 9.3 O 5.6 7.4 9.3 67 1018.4(-0.2/3h) 45 -- -- --
02:00 16.0 16.0 8.9 O 3.7 5.6 7.4 63 1018.5(0.1/3h) 45 -- -- --
01:00 16.7 16.7 9.9 O 5.6 7.4 9.3 64 1018.7(0.3/3h) 45 0/8 -- --
00:00 17.3 17.3 10.5 ONO 7.4 7.4 11.1 64 1018.6(0.3/3h) 45 -- 0/6h
0/24h
--

1 Coordinated Universal Time. Actuellement il est 20:00 locale et 18:00 UTC.

2 Le vent souffle depuis la direction indiquée vers la direction oposée.

3 Les rafales max. sont disponible 40 min après l'heure du relevé.

4 Pour les stations d'altitude (plus de 600m) le géopotentiel du niveau le plus proche de la pression obligatoire est indiqué.

5 Les stations disposant d'un diffuseur peuvent indiquer "trace". Cela signifie que des précipitations ont touchés le sol mais que la quantité est inférieure à 0.1 mm.

Récapitulatif de la journée
Température [°C] Vent [km/h] Ensoleillement4 [h] Precipitations totale5 [mm] Pression [Hpa]
Min1 Max.2 Moy.3 Max. Min Max.
14.7 21.3 8.4 18.5 0 h 0 min 0 1018.4 1021.2

1 Température minimale relevée entre 18:00 UTC la veille et 18:00 UTC le jour donné.

2 Température maximale relevée entre 06:00 UTC le jour donné et 06:00 UTC le lendemain.

3 Vent moyen de la journée basé sur les relevés horaires.

4 Ensoleillement en heures relevé entre 06:00 UTC la veille et 06:00 UTC le jour donné.

5 Précipitations totales tombées entre 06:00 UTC la jour donné et 06:00 UTC le lendemain.

Graphiques horaires